Main page
METAR-TAF:

METAR-TAF

Airports :

Islamabad International Airport

Islamabad, Pakistan

latitude: 33-32-57N, longitude: 072-49-32E, elevation: 537 m

Current weather observation

The report was made 45 minutes ago, at 08:25 UTC
Wind 6 kt from the South
Temperature 33°C
Humidity 49%
Pressure 1005 hPa
Visibility: 7000 m
Few clouds at a height of 4000 ft

METAR: OPIS 210825Z 18006KT 7000 FEW040 33/21 Q1005 RH49

Time: 14:10 (09:10 UTC)

Forecast

The report was made 5 hours and 40 minutes ago, at 03:30 UTC
Forecast valid from 21 at 06 UTC to 22 at 12 UTC
Wind 5 kt from the West
Visibility: 5000 m
Few clouds at a height of 4000 ft
Scattered clouds at a height of 10000 ft
haze
Temporary
from 21 at 06 UTC to 21 at 09 UTC
Wind 10 kt from the Southwest with gusts up to 20 kt
Temporary
from 22 at 06 UTC to 22 at 09 UTC
Wind 15 kt from the Northwest with gusts up to 25 kt

TAF: OPIS 210330Z 2106/2212 27005KT 5000 HZ FEW040 SCT100 TEMPO 2106/2109 22010G20KT TEMPO 2206/2209 31015G25KT

Weather observations and forecasts of more than 4000 airports (METAR and TAF reports).

The available stations are represented by yellow and red dots on the map.

Hover mouse over dot to see the name of the station.

Then click to see weather observations and forecasts.

To change the map : click on the green buttons with a black cross to zoom in, on the green button with a dash to zoom out, or on the green arrows for adjacent maps.


METAR-TAF: